Time;durP1;ratioP1;P1;durP2;ratioP2;P2;SDS_P1;SDS_P2;PMS_P1;PMS_P2;Temp;Humidity;BMP_temperature;BMP_pressure;BME280_temperature;BME280_humidity;BME280_pressure;Samples;Min_cycle;Max_cycle;Signal;HPM_P1;HPM_P2
2022/09/21 00:01:28;;;;;;;;;;;;;;;23.03;53.13;100950.81;7406873;19;1704;-69
2022/09/21 00:03:58;;;;;;;;;;;;;;;22.98;53.46;100942.31;7406918;19;1871;-55
2022/09/21 00:06:30;;;;;;;;;;;;;;;23.00;53.39;100939.47;7409428;19;1684;-55
2022/09/21 00:08:58;;;;;;;;;;;;;;;22.99;53.18;100938.59;7409017;19;1475;-56
2022/09/21 00:11:28;;;;;;;;;;;;;;;23.00;53.36;100943.00;7410836;19;1555;-55
2022/09/21 00:13:58;;;;;;;;;;;;;;;22.96;53.42;100944.34;7409309;19;1676;-56
2022/09/21 00:16:27;;;;;;;;;;;;;;;22.98;53.33;100942.31;7408571;19;1881;-55
2022/09/21 00:18:55;;;;;;;;;;;;;;;22.96;53.43;100954.25;7409843;19;1422;-56
2022/09/21 00:21:23;;;;;;;;;;;;;;;22.94;53.36;100950.88;7410311;19;1708;-69
2022/09/21 00:23:54;;;;;;;;;;;;;;;22.93;53.44;100952.72;7408442;19;1715;-56
2022/09/21 00:26:24;;;;;;;;;;;;;;;22.93;53.48;100951.88;7409761;19;1527;-56
2022/09/21 00:28:54;;;;;;;;;;;;;;;22.98;53.72;100960.38;7409411;19;1525;-56
2022/09/21 00:31:23;;;;;;;;;;;;;;;22.95;53.39;100964.19;7408469;19;1586;-68
2022/09/21 00:33:52;;;;;;;;;;;;;;;22.94;53.68;100950.88;7410500;19;1605;-69
2022/09/21 00:36:21;;;;;;;;;;;;;;;22.95;53.66;100953.41;7409572;19;1862;-69
2022/09/21 00:38:51;;;;;;;;;;;;;;;22.92;53.62;100955.56;7407554;19;1763;-69
2022/09/21 00:41:22;;;;;;;;;;;;;;;22.92;53.71;100969.91;7406843;19;1592;-55
2022/09/21 00:44:10;;;;;;;;;;;;;;;22.92;53.63;100958.28;7409117;19;1349;-56
2022/09/21 00:46:40;;;;;;;;;;;;;;;22.95;53.46;100974.16;7408131;19;1624;-55
2022/09/21 00:49:09;;;;;;;;;;;;;;;22.91;53.64;100962.81;7408131;19;1337;-56
2022/09/21 00:51:38;;;;;;;;;;;;;;;22.92;53.42;100964.53;7408232;19;1795;-56
2022/09/21 00:54:11;;;;;;;;;;;;;;;22.89;53.71;100956.75;7408761;19;1578;-55
2022/09/21 00:56:43;;;;;;;;;;;;;;;22.90;53.70;100966.53;7408258;19;1854;-68
2022/09/21 00:59:13;;;;;;;;;;;;;;;22.89;53.74;100964.00;7407952;19;1680;-69
2022/09/21 01:01:42;;;;;;;;;;;;;;;22.88;53.63;100963.16;7405694;19;1672;-56
2022/09/21 01:04:12;;;;;;;;;;;;;;;22.90;53.63;100965.66;7408652;19;1604;-55
2022/09/21 01:06:41;;;;;;;;;;;;;;;22.90;53.83;100954.88;7407441;19;1754;-56
2022/09/21 01:09:10;;;;;;;;;;;;;;;22.92;53.79;100964.53;7406374;19;1498;-56
2022/09/21 01:11:45;;;;;;;;;;;;;;;22.89;53.81;100954.03;7408158;19;934;-56
2022/09/21 01:14:28;;;;;;;;;;;;;;;22.95;53.79;100966.91;7408199;19;1782;-56
2022/09/21 01:17:03;;;;;;;;;;;;;;;22.92;53.72;100960.97;7407189;19;1882;-69
2022/09/21 01:19:54;;;;;;;;;;;;;;;22.95;53.59;100950.72;7408038;19;1525;-56
2022/09/21 01:22:29;;;;;;;;;;;;;;;22.89;53.80;100964.81;7406305;19;1560;-56
2022/09/21 01:25:03;;;;;;;;;;;;;;;22.88;53.87;100956.88;7407226;19;1754;-56
2022/09/21 01:27:40;;;;;;;;;;;;;;;22.90;53.64;100955.75;7408614;19;1491;-69
2022/09/21 01:30:14;;;;;;;;;;;;;;;22.90;53.51;100954.88;7408473;19;1616;-56
2022/09/21 01:32:44;;;;;;;;;;;;;;;22.88;53.70;100954.19;7406662;19;1562;-56
2022/09/21 01:35:15;;;;;;;;;;;;;;;22.87;53.85;100945.25;7407085;19;1788;-69
2022/09/21 01:37:45;;;;;;;;;;;;;;;22.88;53.90;100946.97;7407294;19;1871;-69
2022/09/21 01:40:17;;;;;;;;;;;;;;;22.87;53.82;100956.06;7408695;19;1549;-69
2022/09/21 01:42:48;;;;;;;;;;;;;;;22.86;53.71;100962.47;7406919;19;1576;-69
2022/09/21 01:45:20;;;;;;;;;;;;;;;22.90;53.78;100954.88;7407504;19;1611;-56
2022/09/21 01:47:51;;;;;;;;;;;;;;;22.88;53.81;100956.88;7405652;19;1674;-56
2022/09/21 01:50:21;;;;;;;;;;;;;;;22.86;53.81;100946.28;7406277;19;1554;-69
2022/09/21 01:52:52;;;;;;;;;;;;;;;22.84;53.91;100951.81;7405976;19;1623;-56
2022/09/21 01:55:27;;;;;;;;;;;;;;;22.86;53.80;100969.69;7406519;19;1404;-56
2022/09/21 01:57:57;;;;;;;;;;;;;;;22.88;53.90;100963.16;7405922;19;1852;-56
2022/09/21 02:00:29;;;;;;;;;;;;;;;22.88;53.57;100968.53;7405364;19;1523;-57
2022/09/21 02:03:03;;;;;;;;;;;;;;;22.83;53.61;100966.28;7397924;19;1386;-57
2022/09/21 02:05:32;;;;;;;;;;;;;;;22.87;53.69;100966.00;7402070;19;1496;-69
2022/09/21 02:08:01;;;;;;;;;;;;;;;22.84;53.67;100956.38;7405094;19;1481;-70
2022/09/21 02:10:32;;;;;;;;;;;;;;;22.90;53.58;100966.53;7403701;19;1410;-69
2022/09/21 02:13:05;;;;;;;;;;;;;;;22.85;53.59;100963.44;7403815;19;1519;-69
2022/09/21 02:15:41;;;;;;;;;;;;;;;22.84;53.87;100959.06;7406140;19;1611;-69
2022/09/21 02:18:14;;;;;;;;;;;;;;;22.85;53.86;100960.75;7405049;19;1853;-69
2022/09/21 02:20:48;;;;;;;;;;;;;;;22.88;53.60;100957.75;7404934;19;1786;-69
2022/09/21 02:23:21;;;;;;;;;;;;;;;22.83;53.54;100957.38;7403164;19;1756;-69
2022/09/21 02:25:51;;;;;;;;;;;;;;;22.85;53.62;100955.34;7405821;19;1586;-69
2022/09/21 02:28:28;;;;;;;;;;;;;;;22.87;53.59;100960.59;7403981;19;1577;-69
2022/09/21 02:31:03;;;;;;;;;;;;;;;22.81;53.78;100968.31;7404185;19;1429;-69
2022/09/21 02:33:33;;;;;;;;;;;;;;;22.82;53.82;100958.38;7404853;19;1476;-69
2022/09/21 02:36:07;;;;;;;;;;;;;;;22.79;53.84;100953.28;7404554;19;1545;-69
2022/09/21 02:38:37;;;;;;;;;;;;;;;22.78;53.72;100971.31;7402947;19;1854;-69
2022/09/21 02:41:08;;;;;;;;;;;;;;;22.76;53.88;100962.56;7405119;19;1507;-69
2022/09/21 02:43:39;;;;;;;;;;;;;;;22.78;53.72;100965.06;7403169;19;1512;-69
2022/09/21 02:46:13;;;;;;;;;;;;;;;22.80;53.73;100981.94;7403257;19;1421;-69
2022/09/21 02:48:44;;;;;;;;;;;;;;;22.77;53.99;100969.63;7403943;19;1721;-68
2022/09/21 02:51:15;;;;;;;;;;;;;;;22.75;53.75;100957.31;7404756;19;1417;-68
2022/09/21 02:53:43;;;;;;;;;;;;;;;22.77;53.78;100955.28;7403418;19;1507;-68
2022/09/21 02:56:13;;;;;;;;;;;;;;;22.77;53.75;100952.59;7404531;19;1346;-69
2022/09/21 02:58:43;;;;;;;;;;;;;;;22.73;53.97;100943.13;7401369;19;1857;-68
2022/09/21 03:01:16;;;;;;;;;;;;;;;22.74;53.78;100958.28;7400758;19;1281;-68
2022/09/21 03:03:44;;;;;;;;;;;;;;;22.71;53.94;100955.94;7403085;19;1630;-70
2022/09/21 03:06:12;;;;;;;;;;;;;;;22.73;53.74;100948.53;7402186;19;1433;-69
2022/09/21 03:08:41;;;;;;;;;;;;;;;22.77;53.66;100955.28;7403963;19;1535;-69
2022/09/21 03:11:09;;;;;;;;;;;;;;;22.78;53.96;100946.19;7403062;19;1536;-57
2022/09/21 03:13:38;;;;;;;;;;;;;;;22.74;53.82;100951.06;7403096;19;1608;-57
2022/09/21 03:16:07;;;;;;;;;;;;;;;22.75;53.99;100963.53;7403604;19;1541;-57
2022/09/21 03:18:39;;;;;;;;;;;;;;;22.73;53.81;100949.38;7401255;19;1848;-57
2022/09/21 03:21:07;;;;;;;;;;;;;;;22.79;54.06;100956.00;7402867;19;1572;-57
2022/09/21 03:23:35;;;;;;;;;;;;;;;22.82;53.73;100950.28;7407190;19;1468;-59
2022/09/21 03:26:04;;;;;;;;;;;;;;;22.86;53.75;100959.75;7410505;19;1685;-58
2022/09/21 03:28:32;;;;;;;;;;;;;;;22.89;53.87;100964.00;7410299;19;1572;-60
2022/09/21 03:31:00;;;;;;;;;;;;;;;22.81;53.90;100960.22;7409628;19;1465;-60
2022/09/21 03:33:29;;;;;;;;;;;;;;;22.86;54.04;100969.69;7409489;19;1656;-62
2022/09/21 03:36:00;;;;;;;;;;;;;;;22.87;54.14;100963.31;7410251;19;1573;-63
2022/09/21 03:38:28;;;;;;;;;;;;;;;22.83;54.04;100971.69;7408651;19;1860;-61
2022/09/21 03:40:56;;;;;;;;;;;;;;;22.79;53.98;100958.69;7410830;19;1495;-62
2022/09/21 03:43:25;;;;;;;;;;;;;;;22.78;49.82;100959.66;7410077;19;1746;-56
2022/09/21 03:45:54;;;;;;;;;;;;;;;22.68;48.46;100967.88;7408359;19;1677;-56
2022/09/21 03:48:22;;;;;;;;;;;;;;;22.71;52.97;100988.28;7410021;19;1596;-56
2022/09/21 03:50:51;;;;;;;;;;;;;;;22.75;52.72;100982.41;7409114;19;1288;-56
2022/09/21 03:53:21;;;;;;;;;;;;;;;22.81;52.50;100994.44;7408115;19;1451;-56
2022/09/21 03:55:50;;;;;;;;;;;;;;;22.74;49.66;100988.81;7409486;19;1311;-65
2022/09/21 03:58:18;;;;;;;;;;;;;;;22.79;51.61;100986.47;7268680;19;16056;-59
2022/09/21 04:00:46;;;;;;;;;;;;;;;22.86;51.90;100986.72;7402772;19;1358;-57
2022/09/21 04:03:14;;;;;;;;;;;;;;;22.95;51.62;101001.13;7404381;19;1510;-56
2022/09/21 04:05:43;;;;;;;;;;;;;;;22.98;51.90;100984.63;7407491;19;1571;-56
2022/09/21 04:08:11;;;;;;;;;;;;;;;22.93;52.62;101003.13;7408107;19;1411;-57
2022/09/21 04:10:42;;;;;;;;;;;;;;;22.96;51.97;100998.28;7409400;19;1316;-57
2022/09/21 04:13:11;;;;;;;;;;;;;;;22.87;52.70;101009.97;7408764;19;1509;-57
2022/09/21 04:15:40;;;;;;;;;;;;;;;22.82;51.10;101009.63;7409050;19;1351;-57
2022/09/21 04:18:08;;;;;;;;;;;;;;;22.77;50.77;101007.38;7407633;19;1857;-56
2022/09/21 04:20:36;;;;;;;;;;;;;;;22.74;51.21;101006.81;7407804;19;1862;-56
2022/09/21 04:23:06;;;;;;;;;;;;;;;22.75;50.93;101008.53;7407362;19;1371;-67
2022/09/21 04:25:34;;;;;;;;;;;;;;;22.62;50.99;101012.47;7409266;19;1361;-68
2022/09/21 04:28:06;;;;;;;;;;;;;;;22.68;50.84;101010.13;7407741;19;1425;-68
2022/09/21 04:30:35;;;;;;;;;;;;;;;22.70;51.64;101009.00;7407625;19;1439;-63
2022/09/21 04:33:03;;;;;;;;;;;;;;;22.84;51.50;101010.31;7406236;19;1658;-64
2022/09/21 04:35:31;;;;;;;;;;;;;;;22.73;51.28;101007.84;7403659;19;1329;-64
2022/09/21 04:38:00;;;;;;;;;;;;;;;22.75;50.60;101016.63;7398691;19;1861;-60
2022/09/21 04:40:28;;;;;;;;;;;;;;;22.68;52.04;101018.22;7399629;19;1417;-56
2022/09/21 04:42:57;;;;;;;;;;;;;;;22.69;52.00;101028.84;7402300;19;1320;-57
2022/09/21 04:45:28;;;;;;;;;;;;;;;22.70;51.99;101027.88;7403181;19;1262;-56
2022/09/21 04:47:56;;;;;;;;;;;;;;;22.71;51.74;101015.22;7401517;19;1646;-63
2022/09/21 04:50:24;;;;;;;;;;;;;;;22.73;51.81;101014.06;7404319;19;1512;-63
2022/09/21 04:52:53;;;;;;;;;;;;;;;22.70;52.11;101030.56;7403293;19;1354;-62
2022/09/21 04:55:21;;;;;;;;;;;;;;;22.68;52.25;101015.53;7406258;19;1309;-62
2022/09/21 04:57:49;;;;;;;;;;;;;;;22.73;52.09;101034.78;7403603;19;1867;-64
2022/09/21 05:00:18;;;;;;;;;;;;;;;22.75;52.17;101006.66;7406229;19;1397;-64
2022/09/21 05:02:50;;;;;;;;;;;;;;;22.76;52.42;101021.84;7402424;19;1381;-57
2022/09/21 05:05:18;;;;;;;;;;;;;;;23.00;51.51;101013.13;7405861;19;1345;-56
2022/09/21 05:07:47;;;;;;;;;;;;;;;23.18;51.21;101031.19;7405986;19;1428;-57
2022/09/21 05:10:13;;;;;;;;;;;;;;;23.12;51.62;101024.56;7405898;19;1722;-56
2022/09/21 05:12:42;;;;;;;;;;;;;;;23.00;51.65;101015.84;7405797;19;1297;-56
2022/09/21 05:15:11;;;;;;;;;;;;;;;22.98;51.95;101031.31;7403704;19;1220;-74
2022/09/21 05:17:39;;;;;;;;;;;;;;;23.03;51.88;101020.09;7403886;19;1352;-57
2022/09/21 05:20:11;;;;;;;;;;;;;;;23.02;52.05;101024.66;7403409;19;1433;-61
2022/09/21 05:22:40;;;;;;;;;;;;;;;23.03;52.19;101020.94;7401985;19;1466;-58
2022/09/21 05:25:09;;;;;;;;;;;;;;;22.97;52.33;101026.09;7403036;19;1575;-57
2022/09/21 05:27:37;;;;;;;;;;;;;;;23.09;51.99;101029.41;7403850;19;1871;-57
2022/09/21 05:30:07;;;;;;;;;;;;;;;23.06;52.07;101019.78;7405066;19;1345;-56
2022/09/21 05:32:43;;;;;;;;;;;;;;;23.15;51.91;101028.78;7406024;19;1417;-57
2022/09/21 05:35:19;;;;;;;;;;;;;;;23.17;51.88;101016.00;7405984;19;1283;-59
2022/09/21 05:37:52;;;;;;;;;;;;;;;23.27;51.71;101011.34;7403761;19;1849;-57
2022/09/21 05:40:20;;;;;;;;;;;;;;;23.28;51.77;100996.00;7406106;19;1290;-57
2022/09/21 05:42:49;;;;;;;;;;;;;;;23.30;51.75;101015.56;7403498;19;1351;-57
2022/09/21 05:45:19;;;;;;;;;;;;;;;23.30;51.68;101021.81;7403694;19;1477;-57
2022/09/21 05:47:55;;;;;;;;;;;;;;;23.39;51.83;101006.53;7403405;19;1754;-57
2022/09/21 05:50:35;;;;;;;;;;;;;;;23.35;51.87;101008.69;7404906;19;1333;-57
2022/09/21 05:53:11;;;;;;;;;;;;;;;23.35;51.75;101006.00;7405420;19;1439;-58
2022/09/21 05:55:46;;;;;;;;;;;;;;;23.41;51.67;101007.22;7403341;19;1338;-58
2022/09/21 05:58:20;;;;;;;;;;;;;;;23.45;52.03;101005.88;7400858;19;1834;-58
2022/09/21 06:00:56;;;;;;;;;;;;;;;23.47;51.73;100997.63;7400248;19;1432;-58
2022/09/21 06:03:29;;;;;;;;;;;;;;;23.45;51.81;101024.78;7399863;19;1544;-58
2022/09/21 06:06:01;;;;;;;;;;;;;;;23.47;52.10;101009.28;7403557;19;1131;-59
2022/09/21 06:08:29;;;;;;;;;;;;;;;23.49;51.77;101006.44;7404433;19;1364;-64
2022/09/21 06:10:58;;;;;;;;;;;;;;;23.48;51.92;101002.03;7404296;19;1271;-65
2022/09/21 06:13:27;;;;;;;;;;;;;;;23.51;51.71;101013.34;7403207;19;1210;-65
2022/09/21 06:15:57;;;;;;;;;;;;;;;23.53;51.93;101018.59;7403460;19;1325;-64
2022/09/21 06:18:26;;;;;;;;;;;;;;;23.23;49.53;101001.88;7402556;19;1863;-66
2022/09/21 06:20:54;;;;;;;;;;;;;;;23.13;50.57;101011.91;7403386;19;1395;-67
2022/09/21 06:23:25;;;;;;;;;;;;;;;23.28;51.10;101013.03;7401835;19;1368;-68
2022/09/21 06:25:54;;;;;;;;;;;;;;;23.40;51.00;101022.56;7402667;19;1304;-68
2022/09/21 06:28:22;;;;;;;;;;;;;;;23.43;51.07;101022.22;7401164;19;1358;-68
2022/09/21 06:30:52;;;;;;;;;;;;;;;23.45;50.92;101019.38;7402518;19;1218;-67
2022/09/21 06:33:22;;;;;;;;;;;;;;;23.46;51.29;101010.28;7402358;19;1126;-68
2022/09/21 06:35:54;;;;;;;;;;;;;;;23.50;51.33;101017.06;7401497;19;1288;-67
2022/09/21 06:38:25;;;;;;;;;;;;;;;23.49;51.64;101019.91;7402123;19;1833;-67
2022/09/21 06:40:54;;;;;;;;;;;;;;;23.51;52.59;101009.81;7402132;19;1750;-68
2022/09/21 06:43:23;;;;;;;;;;;;;;;23.49;52.10;101020.75;7401033;19;1342;-67
2022/09/21 06:45:54;;;;;;;;;;;;;;;23.31;52.58;100991.13;7400771;19;1262;-67
2022/09/21 06:48:23;;;;;;;;;;;;;;;23.53;52.44;101026.69;7403479;19;1372;-68
2022/09/21 06:50:52;;;;;;;;;;;;;;;23.53;52.51;101021.28;7402867;19;1381;-66
2022/09/21 06:53:21;;;;;;;;;;;;;;;23.54;52.80;101028.41;7403261;19;1646;-66
2022/09/21 06:55:52;;;;;;;;;;;;;;;23.54;52.82;101034.63;7402948;19;1662;-66
2022/09/21 06:58:21;;;;;;;;;;;;;;;23.45;51.82;101023.94;7400223;19;1864;-65
2022/09/21 07:00:49;;;;;;;;;;;;;;;23.46;52.19;101021.09;7403017;19;1479;-65
2022/09/21 07:03:18;;;;;;;;;;;;;;;23.48;52.80;101020.94;7401139;19;1414;-65
2022/09/21 07:05:46;;;;;;;;;;;;;;;23.46;52.60;101012.13;7402720;19;1733;-66
2022/09/21 07:08:15;;;;;;;;;;;;;;;23.46;52.82;101025.63;7403041;19;1650;-66
2022/09/21 07:10:44;;;;;;;;;;;;;;;23.44;52.99;101036.59;7404643;19;1539;-66
2022/09/21 07:13:16;;;;;;;;;;;;;;;23.51;52.99;101055.69;7403674;19;1353;-65
2022/09/21 07:15:44;;;;;;;;;;;;;;;23.47;52.98;101035.44;7403339;19;1105;-65
2022/09/21 07:18:13;;;;;;;;;;;;;;;23.46;53.00;101033.72;7401513;19;1326;-65
2022/09/21 07:20:42;;;;;;;;;;;;;;;23.50;52.75;101043.22;7399173;19;1818;-65
2022/09/21 07:23:14;;;;;;;;;;;;;;;23.35;52.96;101041.06;7402229;19;1664;-66
2022/09/21 07:25:43;;;;;;;;;;;;;;;23.37;52.38;101039.06;7402533;19;1357;-65
2022/09/21 07:28:11;;;;;;;;;;;;;;;23.38;52.30;101046.16;7399332;19;1586;-65
2022/09/21 07:30:42;;;;;;;;;;;;;;;23.40;52.12;101036.06;7399722;19;1578;-66
2022/09/21 07:33:11;;;;;;;;;;;;;;;23.43;52.50;101043.81;7400726;19;1536;-66
2022/09/21 07:35:39;;;;;;;;;;;;;;;23.42;52.44;101031.34;7401172;19;1625;-66
2022/09/21 07:38:08;;;;;;;;;;;;;;;23.42;52.42;101020.56;7400429;19;1527;-66
2022/09/21 07:40:37;;;;;;;;;;;;;;;23.42;52.77;101034.06;7400494;19;1856;-66
2022/09/21 07:43:05;;;;;;;;;;;;;;;23.43;52.71;101034.88;7401475;19;1535;-66
2022/09/21 07:45:33;;;;;;;;;;;;;;;23.43;52.97;101021.41;7403818;19;1608;-66
2022/09/21 07:48:07;;;;;;;;;;;;;;;23.47;52.68;101048.91;7402875;19;1768;-66
2022/09/21 07:50:37;;;;;;;;;;;;;;;23.42;52.95;101044.00;7402520;19;1740;-66
2022/09/21 07:53:05;;;;;;;;;;;;;;;23.40;52.72;101038.75;7402588;19;1599;-66
2022/09/21 07:55:34;;;;;;;;;;;;;;;23.39;52.91;101039.75;7402958;19;1537;-66
2022/09/21 08:00:42;;;;;;;;;;;;;;;23.40;53.43;101037.91;7399945;19;1861;-65
2022/09/21 08:03:13;;;;;;;;;;;;;;;23.37;53.34;101032.81;7401096;19;1552;-65
2022/09/21 08:05:42;;;;;;;;;;;;;;;23.27;53.09;101026.69;7400505;19;1330;-66
2022/09/21 08:08:10;;;;;;;;;;;;;;;23.18;52.63;101034.72;7400669;19;1760;-66
2022/09/21 08:10:38;;;;;;;;;;;;;;;23.27;52.09;101032.09;7406749;19;1535;-66
2022/09/21 08:13:06;;;;;;;;;;;;;;;23.29;52.79;101030.91;7408125;19;1381;-65
2022/09/21 08:15:35;;;;;;;;;;;;;;;23.33;52.95;101020.66;7410245;19;1343;-66
2022/09/21 08:18:06;;;;;;;;;;;;;;;23.35;52.75;101032.13;7409005;19;1733;-65
2022/09/21 08:20:37;;;;;;;;;;;;;;;23.35;52.69;101013.25;7407330;19;1865;-66
2022/09/21 08:23:05;;;;;;;;;;;;;;;23.37;52.95;101022.88;7408264;19;1643;-66
2022/09/21 08:25:34;;;;;;;;;;;;;;;23.38;53.01;101029.97;7409413;19;1632;-66
2022/09/21 08:28:02;;;;;;;;;;;;;;;23.31;52.97;101007.31;7409127;19;1535;-66
2022/09/21 08:30:31;;;;;;;;;;;;;;;23.32;53.15;101014.41;7408030;19;1184;-66
2022/09/21 08:32:59;;;;;;;;;;;;;;;23.30;52.96;101024.53;7407717;19;1755;-66
2022/09/21 08:35:27;;;;;;;;;;;;;;;23.32;52.97;101027.06;7406720;19;1350;-67
2022/09/21 08:37:58;;;;;;;;;;;;;;;23.31;52.75;101017.28;7408072;19;1393;-67
2022/09/21 08:40:27;;;;;;;;;;;;;;;23.32;52.85;101014.41;7408066;19;1865;-66
2022/09/21 08:42:58;;;;;;;;;;;;;;;23.33;53.04;101010.69;7407522;19;1455;-66
2022/09/21 08:45:31;;;;;;;;;;;;;;;23.32;52.95;101003.63;7407574;19;1392;-66
2022/09/21 08:48:01;;;;;;;;;;;;;;;23.37;53.07;101005.84;7406920;19;1910;-67
2022/09/21 08:50:35;;;;;;;;;;;;;;;23.35;52.74;101019.47;7406760;19;1226;-67
2022/09/21 08:53:09;;;;;;;;;;;;;;;23.33;52.81;101008.00;7408145;19;1166;-67
2022/09/21 08:55:37;;;;;;;;;;;;;;;23.34;52.79;100995.38;7408605;19;1297;-67
2022/09/21 08:58:13;;;;;;;;;;;;;;;23.37;52.86;101006.69;7407733;19;1333;-67
2022/09/21 09:00:42;;;;;;;;;;;;;;;23.35;52.88;100986.25;7405490;19;1866;-67
2022/09/21 09:03:23;;;;;;;;;;;;;;;23.34;52.86;100987.28;7406123;19;1458;-68
2022/09/21 09:05:54;;;;;;;;;;;;;;;23.35;52.85;100992.50;7407849;19;1255;-67
2022/09/21 09:08:38;;;;;;;;;;;;;;;23.31;52.63;100974.94;7405718;19;1293;-67
2022/09/21 09:11:17;;;;;;;;;;;;;;;23.30;52.70;100986.75;7406839;19;1387;-67
2022/09/21 09:48:50;;;;;;;;;;;;;;;22.99;45.52;100941.31;991850;19;3009114;-42
2022/09/21 09:51:18;;;;;;;;;;;;;;;22.92;45.79;100956.44;7431446;19;1618;-43
2022/09/21 09:53:46;;;;;;;;;;;;;;;22.98;46.09;100942.31;7435796;19;1423;-43
2022/09/21 09:56:14;;;;;;;;;;;;;;;23.05;45.87;100941.72;7424995;19;1837;-44
2022/09/21 09:58:47;;;;;;;;;;;;;;;23.03;44.91;100945.41;7431467;19;1858;-45
2022/09/21 10:01:30;;;;;;;;;;;;;;;23.13;45.32;100949.88;7433472;19;1854;-44
2022/09/21 10:04:08;;;;;;;;;;;;;;;23.03;45.42;100956.19;7432750;19;1635;-44
2022/09/21 10:06:37;;;;;;;;;;;;;;;22.91;44.85;100943.94;7434203;19;1723;-44
2022/09/21 10:09:19;;;;;;;;;;;;;;;22.83;44.27;100949.28;7435705;19;1521;-43
2022/09/21 10:11:48;;;;;;;;;;;;;;;22.66;43.99;100960.91;7433027;19;1353;-44
2022/09/21 10:14:18;;;;;;;;;;;;;;;22.58;44.25;100932.91;7436016;19;1281;-43
2022/09/21 10:16:47;;;;;;;;;;;;;;;22.61;44.26;100948.75;7431659;19;1901;-43
2022/09/21 10:19:20;;;;;;;;;;;;;;;22.64;43.80;100926.91;7433394;19;1829;-44
2022/09/21 10:21:48;;;;;;;;;;;;;;;22.65;43.72;100949.28;7430649;19;1610;-45
2022/09/21 10:24:20;;;;;;;;;;;;;;;22.67;44.01;100938.38;7434624;19;1416;-44
2022/09/21 10:26:50;;;;;;;;;;;;;;;22.56;43.78;100937.59;7428767;19;1812;-45
2022/09/21 10:29:20;;;;;;;;;;;;;;;22.44;43.45;100946.91;7405895;19;1653;-44
2022/09/21 10:31:58;;;;;;;;;;;;;;;22.40;43.98;100945.53;7403136;19;1424;-46
2022/09/21 10:34:29;;;;;;;;;;;;;;;22.62;44.88;100950.47;7406198;19;1453;-44
2022/09/21 10:36:59;;;;;;;;;;;;;;;22.53;43.99;100954.06;7401942;19;1854;-44
2022/09/21 10:39:29;;;;;;;;;;;;;;;22.20;43.97;100948.34;7404916;19;1664;-44
2022/09/21 10:42:02;;;;;;;;;;;;;;;22.23;43.93;100942.63;7405706;19;1677;-43
2022/09/21 10:44:36;;;;;;;;;;;;;;;22.24;43.27;100948.91;7404947;19;1531;-43
2022/09/21 10:47:15;;;;;;;;;;;;;;;22.47;44.02;100943.91;7404676;19;1947;-42
2022/09/21 10:49:49;;;;;;;;;;;;;;;22.41;44.35;100948.06;7401083;19;2038;-44
2022/09/21 10:52:18;;;;;;;;;;;;;;;22.37;43.58;100943.16;7402942;19;1558;-43
2022/09/21 10:54:51;;;;;;;;;;;;;;;22.38;43.98;100940.31;7404739;19;1813;-43
2022/09/21 10:57:20;;;;;;;;;;;;;;;22.32;42.71;100942.75;7401751;19;1860;-43
2022/09/21 10:59:48;;;;;;;;;;;;;;;22.44;43.07;100941.50;7403188;19;1520;-44
2022/09/21 11:02:28;;;;;;;;;;;;;;;22.47;43.29;100954.69;7404376;19;1915;-43
2022/09/21 11:05:02;;;;;;;;;;;;;;;22.58;43.79;100924.81;7404995;19;1978;-43
2022/09/21 11:07:32;;;;;;;;;;;;;;;22.48;43.14;100934.81;7401571;19;1763;-47
2022/09/21 11:10:05;;;;;;;;;;;;;;;22.36;41.61;100923.44;7403282;19;1333;-46
2022/09/21 11:12:38;;;;;;;;;;;;;;;22.50;42.00;100905.91;7401200;19;1680;-47
2022/09/21 11:15:13;;;;;;;;;;;;;;;22.53;41.33;100910.13;7404321;19;1503;-47
2022/09/21 11:17:44;;;;;;;;;;;;;;;22.34;40.78;100911.09;7402283;19;1854;-46
2022/09/21 11:20:22;;;;;;;;;;;;;;;22.28;41.24;100923.34;7403429;19;2034;-46
2022/09/21 11:22:54;;;;;;;;;;;;;;;22.30;41.09;100909.72;7404351;19;1795;-48
2022/09/21 11:25:27;;;;;;;;;;;;;;;22.44;42.31;100914.56;7402362;19;1608;-46
2022/09/21 11:28:00;;;;;;;;;;;;;;;22.38;41.29;100902.59;7399812;19;2195;-46
2022/09/21 11:30:33;;;;;;;;;;;;;;;22.57;42.02;100889.94;7403277;19;1708;-47
2022/09/21 11:33:09;;;;;;;;;;;;;;;22.74;42.07;100889.06;7403845;19;2027;-46
2022/09/21 11:35:48;;;;;;;;;;;;;;;22.78;42.34;100881.47;7402501;19;1859;-46
2022/09/21 11:38:24;;;;;;;;;;;;;;;22.86;43.45;100886.97;7403080;19;2632;-46
2022/09/21 11:40:59;;;;;;;;;;;;;;;22.84;42.94;100886.28;7398800;19;1802;-45
2022/09/21 11:43:39;;;;;;;;;;;;;;;22.82;42.45;100877.50;7403020;19;1681;-46
2022/09/21 11:46:11;;;;;;;;;;;;;;;22.80;42.57;100874.09;7401434;19;1546;-46
2022/09/21 11:48:46;;;;;;;;;;;;;;;22.74;44.56;100862.09;7403029;19;1671;-45
2022/09/21 11:51:37;;;;;;;;;;;;;;;22.74;43.24;100878.28;7401624;19;1899;-46
2022/09/21 11:54:19;;;;;;;;;;;;;;;22.73;43.05;100878.44;7401149;19;1624;-46
2022/09/21 11:56:51;;;;;;;;;;;;;;;22.71;42.87;100875.06;7401076;19;1952;-46
2022/09/21 11:59:28;;;;;;;;;;;;;;;22.69;43.42;100874.38;7403887;19;1673;-46
2022/09/21 12:02:05;;;;;;;;;;;;;;;22.68;42.96;100870.81;7402316;19;1741;-46
2022/09/21 12:04:43;;;;;;;;;;;;;;;22.68;43.24;100869.97;7402278;19;1754;-46
2022/09/21 12:07:23;;;;;;;;;;;;;;;22.70;43.08;100862.56;7402431;19;1779;-46
2022/09/21 12:10:06;;;;;;;;;;;;;;;22.64;42.75;100874.81;7401857;19;1588;-46
2022/09/21 12:12:38;;;;;;;;;;;;;;;22.74;42.57;100883.69;7399567;19;1559;-46
2022/09/21 12:15:10;;;;;;;;;;;;;;;22.68;43.71;100865.44;7400785;19;1574;-46
2022/09/21 12:17:43;;;;;;;;;;;;;;;22.63;42.74;100873.97;7397428;19;1855;-47
2022/09/21 12:20:16;;;;;;;;;;;;;;;22.51;43.10;100871.69;7401609;19;1665;-47
2022/09/21 12:22:48;;;;;;;;;;;;;;;22.40;41.98;100873.63;7403736;19;1818;-47
2022/09/21 12:25:19;;;;;;;;;;;;;;;22.46;41.82;100882.91;7399960;19;1519;-47
2022/09/21 12:27:50;;;;;;;;;;;;;;;22.47;41.94;100873.84;7400888;19;1824;-47
2022/09/21 12:30:20;;;;;;;;;;;;;;;22.45;41.18;100873.16;7401139;19;1737;-46
2022/09/21 12:32:52;;;;;;;;;;;;;;;22.50;41.39;100868.16;7401169;19;1782;-46
2022/09/21 12:35:25;;;;;;;;;;;;;;;22.50;41.28;100867.28;7398457;19;1618;-46
2022/09/21 12:37:57;;;;;;;;;;;;;;;22.54;41.00;100880.31;7399519;19;1851;-46
2022/09/21 12:40:29;;;;;;;;;;;;;;;22.54;42.72;100882.16;7399973;19;1823;-46
2022/09/21 12:43:02;;;;;;;;;;;;;;;22.38;42.78;100872.06;7401035;19;1760;-47
2022/09/21 12:45:33;;;;;;;;;;;;;;;22.39;41.35;100866.53;7401023;19;1561;-45
2022/09/21 12:48:07;;;;;;;;;;;;;;;22.45;41.09;100870.47;7401085;19;2015;-46
2022/09/21 12:50:40;;;;;;;;;;;;;;;22.42;40.84;100860.00;7397939;19;1924;-47
2022/09/21 12:53:17;;;;;;;;;;;;;;;22.48;40.67;100875.53;7400656;19;1804;-46
2022/09/21 12:55:50;;;;;;;;;;;;;;;22.44;40.65;100864.25;7400143;19;1801;-46
2022/09/21 12:58:25;;;;;;;;;;;;;;;22.44;40.02;100864.25;7398850;19;1852;-46
2022/09/21 13:00:59;;;;;;;;;;;;;;;22.44;40.60;100863.38;7399418;19;1835;-46
2022/09/21 13:03:32;;;;;;;;;;;;;;;22.45;40.84;100859.69;7400267;19;1832;-47
2022/09/21 13:06:17;;;;;;;;;;;;;;;22.49;41.36;100869.16;7397525;19;1642;-47
2022/09/21 13:08:48;;;;;;;;;;;;;;;22.47;40.16;100873.84;7396644;19;1904;-46
2022/09/21 13:11:20;;;;;;;;;;;;;;;22.50;41.05;100870.84;7398340;19;1699;-42
2022/09/21 13:13:51;;;;;;;;;;;;;;;22.65;41.17;100871.13;7399967;19;1644;-45
2022/09/21 13:16:27;;;;;;;;;;;;;;;22.80;41.75;100860.59;7398260;19;1845;-43
2022/09/21 13:18:58;;;;;;;;;;;;;;;22.88;42.12;100859.81;7395630;19;1635;-43
2022/09/21 13:21:38;;;;;;;;;;;;;;;22.80;42.59;100857.91;7400860;19;1872;-44
2022/09/21 13:24:27;;;;;;;;;;;;;;;22.76;42.67;100868.19;7396796;19;1821;-43
2022/09/21 13:26:58;;;;;;;;;;;;;;;22.90;42.70;100887.47;7401681;19;1620;-44
2022/09/21 13:29:32;;;;;;;;;;;;;;;22.94;42.67;100870.84;7400669;19;1672;-43
2022/09/21 13:32:02;;;;;;;;;;;;;;;22.90;42.21;100873.97;7399879;19;1933;-43
2022/09/21 13:34:32;;;;;;;;;;;;;;;22.79;42.53;100878.63;7399230;19;1848;-43
2022/09/21 13:37:16;;;;;;;;;;;;;;;22.76;42.99;100872.72;7399809;19;1861;-44
2022/09/21 13:39:50;;;;;;;;;;;;;;;22.78;43.43;100873.41;7399573;19;1746;-44
2022/09/21 13:42:42;;;;;;;;;;;;;;;22.90;43.36;100864.06;7399841;19;1510;-43
2022/09/21 13:45:40;;;;;;;;;;;;;;;22.79;43.16;100858.94;7399089;19;2091;-43
2022/09/21 13:48:15;;;;;;;;;;;;;;;22.82;43.27;100850.53;7399378;19;1645;-43